Terminal Aerodrome Forecast
Issued by NWS

Home | Current Version | Previous Version | Text Only | Print | Product List | Glossary On
Versions: 1 2 3 4 5 6 7 8 9 10 11 12 13
478
FTUS42 KGSP 091729
TAFAND
TAF
KAND 091729Z 0918/1018 26017G25KT P6SM VCSH FEW035 BKN060
     FM100000 27011KT P6SM BKN050
     FM100500 27009KT P6SM SCT060
     FM101500 27016G24KT P6SM FEW250=

USA.gov is the U.S. government's official web portal to all federal, state and local government web resources and services.